首页
METAR-TAF:

METAR-TAF

机场 :

安娜堡, 密歇根州, 美国

纬度: 42-13-26N, 经度: 083-44-24W, 海拔: 255米

当前天气观测

该预报发布于50分钟前的16:53 UTC
风速9节,风向东南
温度 0°C
湿度 64%
气压 1024 hPa
能見度: 16.1公里
少量云层高于8500英尺

METAR: KARB 171653Z 13009KT 10SM FEW085 00/M06 A3023 RMK AO2 SLP248 T00001056

时间: 12:43 (17:43 UTC)


TAF: 丢失

超过4000个机场的气象观测和天气预报(METAR&TAF报告)。

可查询的气象台以黄色和红色小点在地图上表示。

将鼠标移到小点上方,可查看气象台名称。

然后点击查看天气观测和预报。

如需切换地图:点击带黑十字的绿色按钮放大地图;点击带横线的绿色按钮缩小地图;或者点击绿色箭头查看邻近地区的地图。


METAR-TAF: